Time;durP1;ratioP1;P1;durP2;ratioP2;P2;SDS_P1;SDS_P2;PMS_P1;PMS_P2;Temp;Humidity;BMP_temperature;BMP_pressure;BME280_temperature;BME280_humidity;BME280_pressure;Samples;Min_cycle;Max_cycle;Signal;HPM_P1;HPM_P2
2021/12/26 00:04:56;;;;;;;4.17;2.80;;;;;;;-6.91;54.74;100049.06;8474855;34;20998;-80
2021/12/26 00:10:00;;;;;;;4.53;2.10;;;;;;;-7.02;54.06;100056.16;8478146;34;20423;-80
2021/12/26 00:15:06;;;;;;;3.70;2.37;;;;;;;-6.81;54.17;100047.16;8488585;34;20141;-81
2021/12/26 00:20:12;;;;;;;5.40;2.57;;;;;;;-6.77;53.57;100047.09;8484188;34;20409;-79
2021/12/26 00:25:16;;;;;;;6.17;2.70;;;;;;;-6.70;53.41;100044.38;8456295;34;20729;-79
2021/12/26 00:30:21;;;;;;;3.03;2.60;;;;;;;-6.72;53.80;100044.38;8477955;34;20138;-79
2021/12/26 00:35:25;;;;;;;4.07;2.40;;;;;;;-6.78;53.58;100045.34;8478961;34;20589;-79
2021/12/26 00:40:28;;;;;;;4.50;2.50;;;;;;;-6.77;53.54;100048.84;8486615;34;20457;-79
2021/12/26 00:45:33;;;;;;;5.33;2.97;;;;;;;-6.77;53.97;100035.78;8495654;34;20134;-79
2021/12/26 00:50:41;;;;;;;3.03;2.40;;;;;;;-6.81;53.72;100021.88;8500324;34;20437;-79
2021/12/26 00:55:45;;;;;;;2.73;2.20;;;;;;;-7.02;53.71;100004.81;8477195;34;20638;-79
2021/12/26 01:00:51;;;;;;;2.70;2.10;;;;;;;-6.97;54.03;100004.72;8505601;34;20552;-79
2021/12/26 01:05:57;;;;;;;5.20;3.07;;;;;;;-7.02;53.62;100003.94;8480238;34;20528;-79
2021/12/26 01:11:06;;;;;;;5.47;2.70;;;;;;;-7.09;54.11;99999.72;8502351;34;20157;-80
2021/12/26 01:16:16;;;;;;;6.27;3.10;;;;;;;-7.09;54.51;100015.38;8502562;34;20431;-79
2021/12/26 01:21:24;;;;;;;3.97;2.73;;;;;;;-7.04;54.35;99996.16;8488864;34;21086;-79
2021/12/26 01:26:34;;;;;;;2.90;2.70;;;;;;;-7.12;53.39;100005.84;8470771;34;20154;-79
2021/12/26 01:31:39;;;;;;;2.80;2.37;;;;;;;-7.25;53.39;100012.97;8487914;34;20443;-79
2021/12/26 01:37:08;;;;;;;2.50;2.30;;;;;;;-7.05;54.06;100015.31;8439174;34;20571;-79
2021/12/26 01:42:40;;;;;;;4.37;2.70;;;;;;;-6.95;52.67;100025.63;8432498;34;20435;-79
2021/12/26 01:48:18;;;;;;;3.67;3.10;;;;;;;-6.98;52.91;100022.16;8466139;34;20459;-79
2021/12/26 01:53:25;;;;;;;5.40;3.40;;;;;;;-7.08;53.35;100015.34;8457274;34;20434;-78
2021/12/26 01:58:31;;;;;;;5.30;3.17;;;;;;;-7.13;53.22;100008.47;8460222;34;20149;-80
2021/12/26 02:03:44;;;;;;;4.90;2.43;;;;;;;-7.17;53.13;100001.56;8482858;34;21141;-81
2021/12/26 02:08:48;;;;;;;2.93;2.53;;;;;;;-7.14;53.43;100001.53;8481056;34;20565;-80
2021/12/26 02:13:52;;;;;;;3.50;2.47;;;;;;;-7.12;53.54;99986.72;8458800;34;20435;-81
2021/12/26 02:18:56;;;;;;;6.07;2.50;;;;;;;-7.19;53.50;99983.31;8460496;34;20440;-78
2021/12/26 02:24:13;;;;;;;2.90;2.37;;;;;;;-7.16;53.89;99987.63;8459187;34;20428;-79
2021/12/26 02:29:17;;;;;;;4.57;3.43;;;;;;;-7.09;54.14;99979.69;8482730;34;20518;-77
2021/12/26 02:34:20;;;;;;;4.30;2.47;;;;;;;-7.05;54.38;99981.38;8460912;34;20567;-80
2021/12/26 02:39:25;;;;;;;5.70;2.53;;;;;;;-7.04;54.47;99987.44;8461393;34;20444;-78
2021/12/26 02:44:28;;;;;;;2.67;2.47;;;;;;;-7.08;54.94;99984.00;8485317;34;20137;-78
2021/12/26 02:49:32;;;;;;;3.43;2.50;;;;;;;-7.21;55.19;99982.50;8480862;34;20351;-79
2021/12/26 02:54:36;;;;;;;2.67;2.37;;;;;;;-7.22;55.29;99972.91;8484534;34;20428;-78
2021/12/26 02:59:39;;;;;;;3.73;2.63;;;;;;;-7.35;55.19;99971.34;8505682;34;20445;-79
2021/12/26 03:04:43;;;;;;;6.13;3.30;;;;;;;-7.34;55.78;99965.28;8480930;34;20428;-80
2021/12/26 03:09:49;;;;;;;3.80;2.63;;;;;;;-7.23;55.68;99969.44;8473309;34;20153;-78
2021/12/26 03:14:52;;;;;;;4.73;3.10;;;;;;;-7.15;54.26;99958.03;8477494;34;20157;-79
2021/12/26 03:19:55;;;;;;;3.50;2.70;;;;;;;-7.17;53.84;99958.03;8478265;34;20426;-78
2021/12/26 03:25:00;;;;;;;3.70;2.40;;;;;;;-7.18;54.29;99958.06;8473568;34;20430;-79
2021/12/26 03:30:06;;;;;;;3.13;2.83;;;;;;;-7.12;54.08;99945.78;8470498;34;20145;-78
2021/12/26 03:35:13;;;;;;;2.87;2.47;;;;;;;-7.02;54.22;99941.25;8449656;34;20507;-77
2021/12/26 03:40:17;;;;;;;4.50;2.40;;;;;;;-6.99;54.87;99936.88;8476679;34;20459;-78
2021/12/26 03:45:22;;;;;;;3.93;2.90;;;;;;;-7.02;54.40;99938.66;8476307;34;20435;-77
2021/12/26 03:50:27;;;;;;;2.80;2.43;;;;;;;-6.99;54.25;99936.88;8477906;34;20427;-79
2021/12/26 03:55:32;;;;;;;2.93;2.40;;;;;;;-7.02;54.25;99934.31;8486620;34;20139;-76
2021/12/26 04:00:38;;;;;;;4.73;2.60;;;;;;;-7.05;54.40;99934.38;8453763;34;20134;-78
2021/12/26 04:05:42;;;;;;;3.90;2.60;;;;;;;-7.03;55.01;99937.81;8454105;34;21145;-78
2021/12/26 04:10:47;;;;;;;2.83;2.53;;;;;;;-7.13;55.72;99925.81;8476370;34;20394;-79
2021/12/26 04:15:51;;;;;;;5.77;3.23;;;;;;;-7.14;55.88;99924.06;8466260;34;20504;-75
2021/12/26 04:20:54;;;;;;;3.53;2.50;;;;;;;-6.99;54.70;99934.28;8494346;34;20448;-77
2021/12/26 04:26:03;;;;;;;2.80;2.53;;;;;;;-6.91;52.44;99930.66;8470827;34;20144;-79
2021/12/26 04:31:06;;;;;;;4.33;2.53;;;;;;;-6.77;50.26;99924.31;8445177;34;21035;-78
2021/12/26 04:36:10;;;;;;;2.90;2.03;;;;;;;-6.56;49.31;99927.44;8468100;34;20137;-79
2021/12/26 04:41:15;;;;;;;2.93;2.40;;;;;;;-6.54;48.48;99913.44;8445985;34;20266;-79
2021/12/26 04:46:36;;;;;;;2.43;2.10;;;;;;;-6.47;48.47;99913.31;8475073;34;20262;-79
2021/12/26 04:51:42;;;;;;;2.63;2.43;;;;;;;-6.46;48.63;99917.69;8474797;34;20516;-79
2021/12/26 04:56:47;;;;;;;2.77;1.90;;;;;;;-6.55;48.63;99913.50;8472479;34;20448;-78
2021/12/26 05:01:50;;;;;;;2.57;2.20;;;;;;;-6.33;48.68;99909.56;8472902;34;20153;-79
2021/12/26 05:06:55;;;;;;;3.60;2.23;;;;;;;-6.39;49.78;99906.19;8473273;34;20439;-78
2021/12/26 05:12:01;;;;;;;2.90;2.70;;;;;;;-6.38;49.87;99905.34;8474221;34;20597;-79
2021/12/26 05:17:04;;;;;;;5.17;2.43;;;;;;;-6.29;49.71;99896.44;8474233;34;20212;-78
2021/12/26 05:22:08;;;;;;;4.57;2.43;;;;;;;-6.35;50.17;99897.44;8473567;34;20469;-78
2021/12/26 05:27:13;;;;;;;2.87;2.40;;;;;;;-6.28;50.89;99899.00;8475369;34;20452;-77
2021/12/26 05:32:16;;;;;;;2.53;2.33;;;;;;;-6.26;50.95;99888.53;8474062;34;20172;-79
2021/12/26 05:37:19;;;;;;;2.47;2.27;;;;;;;-6.23;51.83;99881.47;8446916;34;20447;-78
2021/12/26 05:42:24;;;;;;;3.53;2.20;;;;;;;-6.11;51.59;99876.03;8468335;34;20524;-77
2021/12/26 05:47:27;;;;;;;4.30;2.47;;;;;;;-6.16;52.27;99877.88;8442699;34;20141;-80
2021/12/26 05:52:35;;;;;;;2.23;2.03;;;;;;;-6.06;52.00;99873.31;8442608;34;20933;-79
2021/12/26 05:57:49;;;;;;;3.90;2.53;;;;;;;-6.07;52.23;99862.88;8447910;34;20570;-78
2021/12/26 06:02:54;;;;;;;2.67;2.20;;;;;;;-6.01;51.84;99860.97;8471438;34;20444;-77
2021/12/26 06:07:57;;;;;;;4.03;2.13;;;;;;;-6.02;52.23;99853.19;8472409;34;20456;-78
2021/12/26 06:13:02;;;;;;;3.00;2.70;;;;;;;-5.97;52.05;99862.66;8465493;34;20240;-78
2021/12/26 06:18:05;;;;;;;13.70;5.60;;;;;;;-6.06;52.50;99862.84;8463853;34;20476;-79
2021/12/26 06:23:27;;;;;;;4.80;3.57;;;;;;;-6.13;52.82;99869.09;8468134;34;20488;-78
2021/12/26 06:29:05;;;;;;;4.13;2.87;;;;;;;-6.15;53.21;99863.03;8468986;34;20160;-80
2021/12/26 06:34:34;;;;;;;15.83;6.57;;;;;;;-6.20;53.54;99864.88;8438805;34;20137;-79
2021/12/26 06:40:15;;;;;;;4.07;3.17;;;;;;;-6.23;53.49;99859.72;8366039;34;20180;-80
2021/12/26 06:45:38;;;;;;;3.73;3.23;;;;;;;-6.20;53.56;99850.03;8467500;34;20520;-79
2021/12/26 06:50:59;;;;;;;23.33;9.13;;;;;;;-6.25;54.00;99851.03;8468198;34;20616;-80
2021/12/26 06:56:03;;;;;;;25.73;9.50;;;;;;;-6.22;54.08;99845.78;8466340;34;20516;-79
2021/12/26 07:01:07;;;;;;;18.00;7.77;;;;;;;-6.25;54.36;99845.81;8471596;34;20184;-79
2021/12/26 07:06:11;;;;;;;15.77;8.93;;;;;;;-6.24;54.62;99840.56;8469456;34;20634;-79
2021/12/26 07:11:16;;;;;;;4.77;3.30;;;;;;;-6.25;55.04;99849.31;8462698;34;21066;-78
2021/12/26 07:16:21;;;;;;;5.40;3.30;;;;;;;-6.19;54.93;99843.09;8468674;34;20492;-79
2021/12/26 07:21:25;;;;;;;8.13;4.00;;;;;;;-6.17;55.06;99846.50;8469428;34;20420;-80
2021/12/26 07:26:34;;;;;;;9.00;5.07;;;;;;;-6.22;56.02;99849.25;8447723;34;20405;-78
2021/12/26 07:31:41;;;;;;;5.97;3.67;;;;;;;-6.30;55.92;99843.31;8475979;34;20157;-79
2021/12/26 07:36:46;;;;;;;4.23;3.33;;;;;;;-6.20;55.86;99841.34;8478951;34;20147;-79
2021/12/26 07:42:03;;;;;;;5.60;4.20;;;;;;;-6.12;56.23;99858.59;8454424;34;20452;-80
2021/12/26 07:47:27;;;;;;;4.57;3.30;;;;;;;-6.06;56.77;99854.13;8474486;34;20144;-80
2021/12/26 07:52:39;;;;;;;3.77;3.33;;;;;;;-6.08;56.77;99856.78;8474351;34;20149;-79
2021/12/26 07:58:00;;;;;;;10.47;5.90;;;;;;;-6.06;56.96;99868.09;8473914;34;20338;-79
2021/12/26 08:03:37;;;;;;;8.53;5.20;;;;;;;-6.00;57.33;99864.47;8398177;34;20536;-80
2021/12/26 08:08:59;;;;;;;7.10;4.87;;;;;;;-5.99;57.42;99871.41;8471510;34;20443;-81
2021/12/26 08:14:05;;;;;;;21.83;8.87;;;;;;;-5.20;60.85;99869.59;8471297;34;20432;-80
2021/12/26 08:19:09;;;;;;;7.53;4.20;;;;;;;-4.57;56.31;99862.72;8474548;34;20200;-81
2021/12/26 08:24:12;;;;;;;6.70;5.03;;;;;;;-4.33;55.65;99868.22;8454497;34;21126;-79
2021/12/26 08:29:16;;;;;;;7.37;4.87;;;;;;;-4.23;55.29;99866.16;8479151;34;20142;-80
2021/12/26 08:34:22;;;;;;;12.73;6.27;;;;;;;-4.33;54.34;99861.19;8480387;34;20457;-81
2021/12/26 08:39:26;;;;;;;35.80;14.40;;;;;;;-4.67;55.12;99865.63;8472259;34;21028;-79
2021/12/26 08:44:29;;;;;;;7.50;5.40;;;;;;;-4.48;54.68;99868.63;8448847;34;20459;-80
2021/12/26 08:49:34;;;;;;;11.57;6.43;;;;;;;-4.59;55.42;99875.00;8476738;34;20578;-81
2021/12/26 08:54:39;;;;;;;8.80;5.60;;;;;;;-4.61;55.62;99876.81;8453263;34;20681;-79
2021/12/26 08:59:43;;;;;;;11.20;5.37;;;;;;;-4.64;55.93;99865.53;8476028;34;20444;-81
2021/12/26 09:04:47;;;;;;;9.43;4.80;;;;;;;-4.47;56.33;99867.72;8478515;34;20542;-80
2021/12/26 09:09:51;;;;;;;5.93;4.33;;;;;;;-4.41;55.86;99868.41;8483325;34;20506;-81
2021/12/26 09:14:54;;;;;;;8.47;4.73;;;;;;;-4.24;56.18;99867.94;8480357;34;20166;-80
2021/12/26 09:19:58;;;;;;;7.67;4.60;;;;;;;-4.16;55.76;99865.09;8475247;34;20153;-81
2021/12/26 09:25:03;;;;;;;9.40;4.97;;;;;;;-4.02;56.49;99862.94;8524035;28;20559;-77
2021/12/26 09:30:08;;;;;;;22.40;9.10;;;;;;;-4.12;56.42;99867.56;8527667;33;20152;-77
2021/12/26 09:35:14;;;;;;;16.63;7.97;;;;;;;-3.87;56.59;99875.63;8523472;33;20467;-77
2021/12/26 09:40:18;;;;;;;12.00;7.27;;;;;;;-3.78;56.44;99868.38;8522731;33;20654;-77
2021/12/26 09:45:21;;;;;;;12.20;6.40;;;;;;;-3.77;57.01;99873.56;8524503;33;20149;-77
2021/12/26 09:50:25;;;;;;;10.27;6.00;;;;;;;-3.50;57.05;99871.00;8524698;33;20149;-77
2021/12/26 09:55:31;;;;;;;11.70;6.33;;;;;;;-3.25;56.89;99856.16;8521026;33;20415;-77
2021/12/26 10:00:38;;;;;;;8.87;5.17;;;;;;;-3.08;56.38;99857.38;8517698;33;20141;-77
2021/12/26 10:06:13;;;;;;;8.57;5.43;;;;;;;-2.93;56.59;99861.25;8515664;33;20400;-77
2021/12/26 10:11:19;;;;;;;11.47;5.60;;;;;;;-2.65;56.82;99851.53;8519102;33;20528;-77
2021/12/26 10:16:25;;;;;;;132.43;40.70;;;;;;;-2.47;56.16;99852.63;8519632;33;20145;-77
2021/12/26 10:21:34;;;;;;;11.97;6.37;;;;;;;-2.42;56.16;99826.16;8520255;33;20145;-77
2021/12/26 10:26:40;;;;;;;13.87;6.97;;;;;;;-2.46;57.17;99832.47;8519504;33;20427;-77
2021/12/26 10:31:49;;;;;;;12.97;7.47;;;;;;;-2.25;56.50;99834.28;8493494;33;20848;-77
2021/12/26 10:36:56;;;;;;;13.47;7.83;;;;;;;-2.02;56.30;99828.19;8513662;33;20283;-77
2021/12/26 10:42:02;;;;;;;10.07;5.53;;;;;;;-1.87;55.78;99829.34;8512735;33;20453;-77
2021/12/26 10:47:10;;;;;;;8.70;5.87;;;;;;;-1.83;55.43;99811.69;8518515;33;20532;-77
2021/12/26 10:52:22;;;;;;;11.47;5.93;;;;;;;-2.20;55.59;99815.69;8523011;33;20253;-77
2021/12/26 10:57:29;;;;;;;10.60;6.00;;;;;;;-1.63;55.41;99809.97;8522022;33;20452;-77
2021/12/26 11:02:35;;;;;;;8.73;5.30;;;;;;;-1.46;55.14;99811.06;8522978;33;20427;-77
2021/12/26 11:07:50;;;;;;;10.90;4.77;;;;;;;-1.41;54.94;99802.06;8530746;33;21014;-77
2021/12/26 11:12:57;;;;;;;8.83;5.87;;;;;;;-1.51;54.93;99802.47;8532862;33;20481;-78
2021/12/26 11:18:04;;;;;;;10.03;5.97;;;;;;;-1.34;55.08;99801.78;8526560;33;20232;-77
2021/12/26 11:23:13;;;;;;;10.63;6.20;;;;;;;-1.53;55.52;99796.44;8524045;33;20532;-77
2021/12/26 11:28:26;;;;;;;11.70;6.57;;;;;;;-1.36;55.75;99780.78;8522044;33;20540;-77
2021/12/26 11:33:30;;;;;;;10.37;6.33;;;;;;;-1.22;55.82;99764.41;8516923;33;20436;-77
2021/12/26 11:38:35;;;;;;;12.57;6.93;;;;;;;-1.27;56.87;99772.50;8517578;33;21232;-77
2021/12/26 11:44:15;;;;;;;15.77;7.40;;;;;;;-1.27;57.22;99766.38;8516528;33;20906;-77
2021/12/26 11:50:14;;;;;;;11.83;6.90;;;;;;;-1.52;57.95;99761.25;8398415;34;20735;-77
2021/12/26 11:55:51;;;;;;;14.73;7.60;;;;;;;-1.57;58.36;99760.59;8500900;33;20432;-77
2021/12/26 12:00:55;;;;;;;14.00;6.43;;;;;;;-1.50;58.09;99767.34;8515202;33;20532;-77
2021/12/26 12:06:01;;;;;;;14.47;8.00;;;;;;;-1.08;57.87;99746.22;8518447;33;20144;-77
2021/12/26 12:11:07;;;;;;;11.13;7.40;;;;;;;-1.13;57.87;99740.28;8519079;33;20283;-77
2021/12/26 12:16:13;;;;;;;14.27;8.40;;;;;;;-0.95;57.79;99739.50;8519496;33;20168;-77
2021/12/26 12:21:20;;;;;;;12.37;7.43;;;;;;;-1.10;58.10;99740.13;8535293;33;20437;-75
2021/12/26 12:26:43;;;;;;;18.23;8.87;;;;;;;-1.24;59.02;99735.47;8517725;33;20215;-76
2021/12/26 12:31:46;;;;;;;10.17;5.73;;;;;;;-1.18;59.04;99731.72;8512478;33;20997;-76
2021/12/26 12:37:00;;;;;;;18.53;9.63;;;;;;;-1.20;59.83;99728.31;8515198;33;20275;-76
2021/12/26 12:42:16;;;;;;;21.47;11.27;;;;;;;-1.09;60.06;99738.38;8527557;33;20540;-76
2021/12/26 12:47:24;;;;;;;34.67;15.10;;;;;;;-1.35;60.39;99726.31;8538335;33;20529;-76
2021/12/26 12:52:51;;;;;;;16.10;8.53;;;;;;;-1.51;62.33;99728.72;8514748;33;20216;-76
2021/12/26 12:57:56;;;;;;;19.53;10.30;;;;;;;-1.62;64.42;99723.91;8516577;33;20524;-76
2021/12/26 13:03:00;;;;;;;18.85;10.40;;;;;;;-1.84;65.31;99710.75;8523099;33;20416;-76
2021/12/26 13:08:08;;;;;;;19.13;9.97;;;;;;;-1.81;65.52;99713.28;8519627;33;20499;-76
2021/12/26 13:13:16;;;;;;;16.93;8.33;;;;;;;-1.50;64.69;99712.03;8518619;33;20230;-77
2021/12/26 13:18:20;;;;;;;21.87;11.30;;;;;;;-1.45;64.65;99702.16;8518946;33;20222;-76
2021/12/26 13:23:25;;;;;;;24.20;12.00;;;;;;;-1.25;64.68;99696.03;8519070;33;20417;-77
2021/12/26 13:28:31;;;;;;;21.07;10.60;;;;;;;-1.28;64.65;99677.72;8518642;33;20406;-77
2021/12/26 13:33:36;;;;;;;20.67;11.80;;;;;;;-1.33;65.62;99682.31;8515076;33;20511;-77
2021/12/26 13:38:40;;;;;;;16.67;9.10;;;;;;;-1.67;66.99;99673.22;8519456;33;20407;-77
2021/12/26 13:43:46;;;;;;;21.97;9.73;;;;;;;-1.63;67.49;99678.28;8521370;33;20306;-77
2021/12/26 13:48:54;;;;;;;28.57;12.67;;;;;;;-1.24;66.70;99666.94;8525480;33;21015;-77
2021/12/26 13:54:06;;;;;;;40.37;18.53;;;;;;;-1.20;66.44;99660.63;8526691;33;20159;-77
2021/12/26 13:59:10;;;;;;;41.33;17.20;;;;;;;-1.39;67.33;99667.63;8525041;33;21075;-77
2021/12/26 14:04:14;;;;;;;22.47;11.13;;;;;;;-1.37;67.68;99647.34;8543718;33;20422;-77
2021/12/26 14:09:17;;;;;;;24.17;12.17;;;;;;;-1.40;67.53;99671.16;8527118;33;20438;-76
2021/12/26 14:14:31;;;;;;;21.93;11.30;;;;;;;-1.54;68.22;99655.94;8525238;33;20933;-76
2021/12/26 14:19:34;;;;;;;23.80;11.47;;;;;;;-1.46;68.45;99653.84;8493196;33;20426;-76
2021/12/26 14:24:37;;;;;;;21.87;10.77;;;;;;;-1.66;68.49;99652.06;8514856;33;21211;-76
2021/12/26 14:29:42;;;;;;;18.17;10.60;;;;;;;-1.50;69.31;99661.97;8513584;33;20423;-76
2021/12/26 14:34:45;;;;;;;23.00;10.83;;;;;;;-1.58;68.92;99661.44;8512818;33;20243;-76
2021/12/26 14:39:53;;;;;;;25.90;12.87;;;;;;;-1.60;69.45;99655.38;8511293;33;20527;-76
2021/12/26 14:45:04;;;;;;;23.03;11.47;;;;;;;-1.59;69.39;99657.94;8514690;33;20152;-76
2021/12/26 14:50:11;;;;;;;31.87;15.40;;;;;;;-1.72;70.31;99654.13;8514300;33;20151;-76
2021/12/26 14:55:18;;;;;;;44.53;18.00;;;;;;;-1.52;69.76;99654.13;8511122;33;20202;-76
2021/12/26 15:00:26;;;;;;;15.63;9.60;;;;;;;-1.66;70.10;99652.06;8511389;33;20591;-77
2021/12/26 15:05:33;;;;;;;24.50;12.40;;;;;;;-1.51;70.26;99658.47;8514554;33;20505;-77
2021/12/26 15:10:38;;;;;;;21.97;11.00;;;;;;;-1.55;70.88;99642.88;8515754;33;20599;-77
2021/12/26 15:15:45;;;;;;;25.83;13.60;;;;;;;-1.73;70.85;99640.06;8517432;33;21101;-76
2021/12/26 15:20:51;;;;;;;23.30;12.27;;;;;;;-1.58;71.13;99637.72;8517465;33;20412;-76
2021/12/26 15:26:26;;;;;;;27.90;15.20;;;;;;;-1.80;71.12;99635.16;8525731;28;20428;-79
2021/12/26 15:32:29;;;;;;;29.80;13.87;;;;;;;-1.69;71.25;99632.91;8492194;34;20214;-79
2021/12/26 15:38:08;;;;;;;28.47;14.43;;;;;;;-1.69;71.05;99623.25;8506208;33;20228;-80
2021/12/26 15:43:12;;;;;;;21.27;10.53;;;;;;;-1.75;71.55;99630.56;8492237;33;20445;-79
2021/12/26 15:48:15;;;;;;;33.40;16.33;;;;;;;-1.56;71.08;99633.22;8488612;34;20952;-79
2021/12/26 15:53:25;;;;;;;25.10;13.50;;;;;;;-1.52;71.38;99627.78;8486655;33;20446;-79
2021/12/26 15:58:30;;;;;;;27.20;12.13;;;;;;;-1.70;72.28;99623.28;8488090;33;20424;-79
2021/12/26 16:03:34;;;;;;;25.03;13.27;;;;;;;-1.83;72.75;99624.75;8492916;33;20422;-78
2021/12/26 16:08:43;;;;;;;27.40;12.97;;;;;;;-1.77;73.14;99614.81;8527123;33;20430;-78
2021/12/26 16:14:05;;;;;;;24.00;11.80;;;;;;;-1.70;73.08;99612.75;8504685;33;20442;-78
2021/12/26 16:20:10;;;;;;;30.60;15.27;;;;;;;-1.82;74.14;99611.50;8498103;34;20703;-77
2021/12/26 16:25:16;;;;;;;24.77;14.03;;;;;;;-1.98;74.48;99610.44;8497369;34;20448;-78
2021/12/26 16:30:22;;;;;;;32.17;15.47;;;;;;;-1.90;74.76;99618.88;8518760;33;20989;-79
2021/12/26 16:35:26;;;;;;;27.00;14.57;;;;;;;-1.86;74.40;99621.31;8497555;34;20626;-79
2021/12/26 16:40:48;;;;;;;26.30;13.33;;;;;;;-1.84;74.39;99626.50;8498359;34;20196;-80
2021/12/26 16:45:53;;;;;;;26.50;12.70;;;;;;;-1.83;74.79;99628.25;8497310;33;20156;-79
2021/12/26 16:50:58;;;;;;;28.73;14.23;;;;;;;-1.72;74.59;99620.75;8495651;34;20150;-79
2021/12/26 16:56:05;;;;;;;29.90;14.70;;;;;;;-1.73;74.70;99634.81;8495183;34;20447;-80
2021/12/26 17:02:14;;;;;;;28.87;14.20;;;;;;;-1.90;74.78;99609.19;8497153;34;20434;-79
2021/12/26 17:07:19;;;;;;;30.47;15.67;;;;;;;-1.76;74.80;99613.03;8560633;33;20149;-80
2021/12/26 17:12:23;;;;;;;39.17;18.00;;;;;;;-1.85;74.83;99609.84;8568775;33;20153;-80
2021/12/26 17:17:27;;;;;;;38.17;17.20;;;;;;;-1.76;75.00;99607.75;8567579;33;20220;-81
2021/12/26 17:23:25;;;;;;;36.97;18.23;;;;;;;-1.70;74.77;99612.75;8548462;33;20514;-80
2021/12/26 17:28:35;;;;;;;32.17;16.10;;;;;;;-1.72;74.81;99597.03;8547831;33;20424;-80
2021/12/26 17:33:38;;;;;;;53.70;22.40;;;;;;;-1.65;74.68;99602.88;8547940;33;20202;-80
2021/12/26 17:38:42;;;;;;;33.90;16.00;;;;;;;-1.83;74.75;99604.53;8573119;33;20461;-80
2021/12/26 17:43:46;;;;;;;25.23;12.53;;;;;;;-1.67;74.62;99587.16;8548937;33;20572;-80
2021/12/26 17:48:52;;;;;;;26.50;14.13;;;;;;;-1.72;74.50;99591.78;8567368;33;20539;-80
2021/12/26 17:53:55;;;;;;;25.47;13.43;;;;;;;-1.56;74.23;99591.09;8547885;33;20156;-81
2021/12/26 17:59:00;;;;;;;24.33;12.57;;;;;;;-1.63;74.28;99583.47;8572253;33;20149;-80
2021/12/26 18:04:06;;;;;;;25.10;12.47;;;;;;;-1.49;74.02;99580.22;8567491;33;20141;-80
2021/12/26 18:09:12;;;;;;;28.87;15.70;;;;;;;-1.49;73.98;99577.59;8545782;33;20223;-79
2021/12/26 18:14:19;;;;;;;25.13;13.90;;;;;;;-1.46;73.98;99574.81;8566370;33;20165;-79
2021/12/26 18:19:23;;;;;;;31.67;13.60;;;;;;;-1.42;73.76;99571.13;8564156;33;20180;-79
2021/12/26 18:24:26;;;;;;;28.27;13.13;;;;;;;-1.35;73.68;99578.75;8538055;33;20622;-78
2021/12/26 18:29:31;;;;;;;25.03;12.60;;;;;;;-1.40;73.41;99584.22;8555382;33;20417;-79
2021/12/26 18:34:37;;;;;;;41.03;18.00;;;;;;;-1.35;73.59;99584.03;8529182;33;20196;-80
2021/12/26 18:39:41;;;;;;;29.67;15.60;;;;;;;-1.30;73.39;99585.53;8529492;33;20133;-78
2021/12/26 18:44:48;;;;;;;29.03;13.40;;;;;;;-1.20;73.19;99573.66;8526844;33;20422;-78
2021/12/26 18:49:52;;;;;;;26.17;14.03;;;;;;;-1.22;73.57;99569.38;8552352;33;20421;-79
2021/12/26 18:54:55;;;;;;;28.33;14.53;;;;;;;-1.33;73.55;99556.69;8552739;33;20133;-79
2021/12/26 18:59:59;;;;;;;26.77;13.53;;;;;;;-1.23;74.08;99559.78;8552278;33;20154;-79
2021/12/26 19:05:06;;;;;;;26.23;13.97;;;;;;;-1.28;74.90;99556.50;8530202;33;20436;-79
2021/12/26 19:10:10;;;;;;;30.43;14.20;;;;;;;-1.35;75.74;99555.03;8543005;33;20152;-79
2021/12/26 19:15:14;;;;;;;30.47;14.83;;;;;;;-1.50;77.45;99557.44;8544108;33;20152;-79
2021/12/26 19:20:18;;;;;;;31.13;13.40;;;;;;;-1.43;78.40;99558.88;8531631;33;20542;-79
2021/12/26 19:25:23;;;;;;;28.47;13.70;;;;;;;-1.51;78.91;99554.88;8532789;33;20155;-79
2021/12/26 19:30:34;;;;;;;27.53;14.47;;;;;;;-1.70;78.96;99553.06;8527652;33;20429;-78
2021/12/26 19:35:37;;;;;;;30.70;14.67;;;;;;;-1.45;79.32;99557.25;8526032;33;20159;-79
2021/12/26 19:40:42;;;;;;;35.57;16.83;;;;;;;-1.52;79.66;99553.16;8523231;33;20180;-77
2021/12/26 19:46:14;;;;;;;32.03;16.20;;;;;;;-1.48;79.92;99558.25;8551847;33;20431;-79
2021/12/26 19:51:23;;;;;;;48.57;22.33;;;;;;;-1.44;79.56;99548.41;8508880;33;20207;-80
2021/12/26 19:56:26;;;;;;;39.80;17.73;;;;;;;-1.30;79.46;99538.09;8533572;33;20420;-77
2021/12/26 20:01:31;;;;;;;36.37;17.43;;;;;;;-1.30;79.36;99540.75;8536325;33;20483;-78
2021/12/26 20:06:34;;;;;;;33.37;17.13;;;;;;;-1.41;79.62;99543.00;8540104;33;21039;-78
2021/12/26 20:11:38;;;;;;;37.65;16.45;;;;;;;-1.25;79.48;99530.84;8557638;33;20439;-77
2021/12/26 20:16:42;;;;;;;32.20;16.37;;;;;;;-1.48;80.27;99536.28;8553984;33;20617;-77
2021/12/26 20:21:46;;;;;;;30.17;16.90;;;;;;;-1.31;80.62;99527.66;8547314;33;20377;-78
2021/12/26 20:26:52;;;;;;;35.80;18.10;;;;;;;-1.31;80.58;99523.22;8542927;33;20429;-77
2021/12/26 20:31:56;;;;;;;78.80;33.20;;;;;;;-1.33;80.36;99511.91;8537165;33;20149;-79
2021/12/26 20:37:00;;;;;;;35.13;18.07;;;;;;;-1.25;80.28;99509.75;8536056;33;20530;-78
2021/12/26 20:42:04;;;;;;;30.87;16.60;;;;;;;-1.36;80.12;99505.91;8535015;33;20933;-77
2021/12/26 20:47:09;;;;;;;30.47;16.67;;;;;;;-1.51;80.32;99502.19;8533776;33;20456;-77
2021/12/26 20:52:12;;;;;;;34.70;18.00;;;;;;;-1.34;80.23;99515.47;8533523;33;20630;-78
2021/12/26 20:57:15;;;;;;;33.70;16.43;;;;;;;-1.24;80.17;99503.56;8534409;33;20129;-77
2021/12/26 21:02:19;;;;;;;24.57;13.40;;;;;;;-1.27;79.91;99495.81;8548789;33;20200;-78
2021/12/26 21:07:23;;;;;;;31.20;16.07;;;;;;;-1.28;79.67;99491.47;8551397;33;21262;-77
2021/12/26 21:12:27;;;;;;;24.80;14.70;;;;;;;-1.34;80.05;99483.84;8551569;33;20191;-78
2021/12/26 21:17:32;;;;;;;32.70;14.77;;;;;;;-1.22;80.30;99487.69;8553502;33;20152;-78
2021/12/26 21:22:35;;;;;;;35.50;17.43;;;;;;;-1.19;79.68;99483.13;8556017;33;20224;-77
2021/12/26 21:27:38;;;;;;;33.20;17.07;;;;;;;-1.33;79.94;99471.53;8558802;33;20232;-77
2021/12/26 21:32:42;;;;;;;33.50;15.80;;;;;;;-1.38;79.95;99461.19;8551129;33;20699;-77
2021/12/26 21:37:46;;;;;;;32.27;14.93;;;;;;;-1.21;79.58;99457.75;8548360;33;20904;-77
2021/12/26 21:42:49;;;;;;;32.40;16.87;;;;;;;-1.25;79.53;99466.75;8550207;33;20276;-78
2021/12/26 21:47:56;;;;;;;31.77;14.60;;;;;;;-1.05;79.33;99460.53;8550060;33;20144;-78
2021/12/26 21:52:59;;;;;;;34.10;16.73;;;;;;;-1.04;78.94;99452.56;8536985;33;20557;-77
2021/12/26 21:58:03;;;;;;;35.33;16.50;;;;;;;-1.09;79.21;99453.72;8543281;33;20468;-78
2021/12/26 22:03:08;;;;;;;31.80;14.87;;;;;;;-1.31;79.15;99444.19;8544346;33;20433;-78
2021/12/26 22:08:11;;;;;;;35.00;15.40;;;;;;;-1.33;79.15;99442.53;8512337;33;20153;-78
2021/12/26 22:13:14;;;;;;;31.77;15.67;;;;;;;-1.46;79.93;99440.47;8509978;33;20210;-78
2021/12/26 22:18:18;;;;;;;34.67;15.53;;;;;;;-1.38;79.10;99440.13;8533330;33;20531;-77
2021/12/26 22:23:22;;;;;;;37.77;17.93;;;;;;;-1.60;80.25;99439.41;8536355;33;20431;-78
2021/12/26 22:28:25;;;;;;;35.57;17.27;;;;;;;-1.36;79.81;99440.91;8539873;33;20665;-77
2021/12/26 22:33:29;;;;;;;32.87;15.07;;;;;;;-1.28;79.76;99430.84;8549692;33;20186;-77
2021/12/26 22:38:32;;;;;;;34.30;16.40;;;;;;;-1.26;79.42;99436.91;8547537;33;20456;-78
2021/12/26 22:43:35;;;;;;;35.10;17.10;;;;;;;-1.42;79.41;99425.41;8538538;33;20433;-77
2021/12/26 22:48:40;;;;;;;34.33;16.43;;;;;;;-1.22;79.49;99424.44;8508710;33;20432;-78
2021/12/26 22:53:44;;;;;;;34.80;16.80;;;;;;;-1.24;79.27;99427.13;8532398;33;20149;-78
2021/12/26 22:58:47;;;;;;;37.77;16.27;;;;;;;-1.21;79.42;99427.03;8531541;33;20188;-78
2021/12/26 23:03:51;;;;;;;31.27;16.47;;;;;;;-1.18;79.91;99426.00;8534199;33;20139;-78
2021/12/26 23:08:54;;;;;;;30.90;14.63;;;;;;;-1.15;79.58;99422.34;8534778;33;20893;-78
2021/12/26 23:13:59;;;;;;;33.97;16.43;;;;;;;-1.12;79.67;99407.28;8536808;33;20428;-78
2021/12/26 23:19:07;;;;;;;37.60;17.23;;;;;;;-1.08;79.90;99405.31;8519197;33;20416;-78
2021/12/26 23:24:10;;;;;;;36.07;15.43;;;;;;;-1.37;80.77;99396.19;8541693;33;20184;-78
2021/12/26 23:29:14;;;;;;;36.33;16.27;;;;;;;-1.28;80.88;99383.44;8544483;33;20421;-79
2021/12/26 23:34:19;;;;;;;40.40;15.33;;;;;;;-1.40;81.68;99386.63;8545650;33;20463;-78
2021/12/26 23:39:24;;;;;;;38.20;17.07;;;;;;;-1.43;81.57;99384.16;8545543;33;20150;-78
2021/12/26 23:44:28;;;;;;;36.93;16.70;;;;;;;-1.45;81.62;99376.34;8544765;33;20160;-78
2021/12/26 23:49:33;;;;;;;37.50;16.63;;;;;;;-1.60;82.25;99370.94;8546192;33;20489;-78
2021/12/26 23:54:36;;;;;;;38.03;17.00;;;;;;;-1.42;81.36;99370.91;8538576;33;20145;-78